< < Back
Terminal Aerodrome Forecast


Current Version              Previous Versions:   1  2  3  4  5  6  7  8  9  

Terminal Aerodrome Forecast

262
FTUS44 KOHX 291728
TAFBNA
TAF
KBNA 291728Z 2918/3018 35008G13KT P6SM FEW045
     FM300100 01003KT P6SM SCT250=

Latest METAR

346
SAUS70 KWBC 300456
MTRBNA
METAR KBNA 300453Z 34004KT 10SM CLR 21/13 A3005 RMK AO2 SLP168
T02060133


USA.gov is the U.S. government's official web portal to all federal, state and local government web resources and services.